createdAt,value
2023-02-27T00:01:10.925Z,2.50
2023-02-27T00:03:37.869Z,2.50
2023-02-27T00:06:05.318Z,2.50
2023-02-27T00:08:33.045Z,1.98
2023-02-27T00:11:00.097Z,2.25
2023-02-27T00:13:27.128Z,2.33
2023-02-27T00:15:56.365Z,2.30
2023-02-27T00:18:23.774Z,1.80
2023-02-27T00:20:50.865Z,2.03
2023-02-27T00:23:18.045Z,2.28
2023-02-27T00:25:45.322Z,2.30
2023-02-27T00:28:12.476Z,2.45
2023-02-27T00:30:39.780Z,2.33
2023-02-27T00:33:07.021Z,3.13
2023-02-27T00:35:33.988Z,2.42
2023-02-27T00:38:01.097Z,2.50
2023-02-27T00:40:28.140Z,2.30
2023-02-27T00:42:55.426Z,2.15
2023-02-27T00:45:22.469Z,2.15
2023-02-27T00:47:49.467Z,2.10
2023-02-27T00:50:16.649Z,1.95
2023-02-27T00:52:43.954Z,2.20
2023-02-27T00:55:11.397Z,2.55
2023-02-27T00:57:39.344Z,2.08
2023-02-27T01:00:11.069Z,1.92
2023-02-27T01:02:39.005Z,1.98
2023-02-27T01:05:06.591Z,2.53
2023-02-27T01:07:33.618Z,2.50
2023-02-27T01:10:02.046Z,2.25
2023-02-27T01:12:28.983Z,2.42
2023-02-27T01:14:55.988Z,2.20
2023-02-27T01:17:23.005Z,2.00
2023-02-27T01:19:49.936Z,2.33
2023-02-27T01:22:17.020Z,2.30
2023-02-27T01:24:43.985Z,2.45
2023-02-27T01:27:11.028Z,2.13
2023-02-27T01:29:38.269Z,2.30
2023-02-27T01:32:05.470Z,2.00
2023-02-27T01:34:34.230Z,2.25
2023-02-27T01:37:01.393Z,2.30
2023-02-27T01:39:32.960Z,2.10
2023-02-27T01:42:01.133Z,2.35
2023-02-27T01:44:51.969Z,2.17
2023-02-27T01:47:18.885Z,2.60
2023-02-27T01:49:45.907Z,2.20
2023-02-27T01:52:13.741Z,2.58
2023-02-27T01:54:42.001Z,2.78
2023-02-27T01:57:09.790Z,2.40
2023-02-27T01:59:41.512Z,2.33
2023-02-27T02:02:16.946Z,2.65
2023-02-27T02:04:46.685Z,2.22
2023-02-27T02:07:17.773Z,2.20
2023-02-27T02:09:54.771Z,2.50
2023-02-27T02:12:28.949Z,2.30
2023-02-27T02:14:56.222Z,2.22
2023-02-27T02:18:15.349Z,2.03
2023-02-27T02:21:26.420Z,2.33
2023-02-27T02:24:30.077Z,2.00
2023-02-27T02:27:20.426Z,2.45
2023-02-27T02:30:09.256Z,2.13
2023-02-27T02:33:04.225Z,2.63
2023-02-27T02:35:51.736Z,2.30
2023-02-27T02:38:51.713Z,2.95
2023-02-27T02:41:33.057Z,2.42
2023-02-27T02:44:18.444Z,2.28
2023-02-27T02:47:21.861Z,2.53
2023-02-27T02:50:04.822Z,2.30
2023-02-27T02:52:51.878Z,2.42
2023-02-27T02:55:33.207Z,2.30
2023-02-27T02:58:18.904Z,2.25
2023-02-27T03:01:03.922Z,2.10
2023-02-27T03:03:37.003Z,2.28
2023-02-27T03:06:17.096Z,2.00
2023-02-27T03:08:54.813Z,2.10
2023-02-27T03:11:25.446Z,2.25
2023-02-27T03:14:00.406Z,2.10
2023-02-27T03:16:37.224Z,2.25
2023-02-27T03:19:13.826Z,2.00
2023-02-27T03:21:43.947Z,2.20
2023-02-27T03:24:19.909Z,2.65
2023-02-27T03:26:49.454Z,2.30
2023-02-27T03:29:22.873Z,3.05
2023-02-27T03:32:03.722Z,2.42
2023-02-27T03:34:38.152Z,2.10
2023-02-27T03:37:05.232Z,3.58
2023-02-27T03:39:47.480Z,2.42
2023-02-27T03:42:34.020Z,2.40
2023-02-27T03:45:11.401Z,2.50
2023-02-27T03:47:38.949Z,2.30
2023-02-27T03:50:06.563Z,2.85
2023-02-27T03:52:33.790Z,2.10
2023-02-27T03:55:08.357Z,2.70
2023-02-27T03:57:35.932Z,2.38
2023-02-27T04:00:05.986Z,2.50
2023-02-27T04:02:33.780Z,2.47
2023-02-27T04:05:00.760Z,2.35
2023-02-27T04:07:46.412Z,2.50
2023-02-27T04:10:28.505Z,2.58
2023-02-27T04:13:16.426Z,2.78
2023-02-27T04:16:05.465Z,2.45
2023-02-27T04:18:44.206Z,2.13
2023-02-27T04:21:19.174Z,2.40
2023-02-27T04:23:57.667Z,2.58
2023-02-27T04:26:41.985Z,2.40
2023-02-27T04:29:28.892Z,2.58
2023-02-27T04:32:02.268Z,2.70
2023-02-27T04:34:48.946Z,2.50
2023-02-27T04:37:42.362Z,2.30
2023-02-27T04:40:16.458Z,2.40
2023-02-27T04:42:50.897Z,2.25
2023-02-27T04:45:22.674Z,2.30
2023-02-27T04:48:05.719Z,3.20
2023-02-27T04:50:38.094Z,2.55
2023-02-27T04:53:28.060Z,2.63
2023-02-27T04:56:04.454Z,2.60
2023-02-27T04:58:40.795Z,2.65
2023-02-27T05:01:15.122Z,2.78
2023-02-27T05:03:46.261Z,2.63
2023-02-27T05:06:16.347Z,2.75
2023-02-27T05:08:49.736Z,2.75
2023-02-27T05:11:44.473Z,2.60
2023-02-27T05:14:27.507Z,3.03
2023-02-27T05:17:03.398Z,2.88
2023-02-27T05:19:32.904Z,2.70
2023-02-27T05:22:27.122Z,3.03
2023-02-27T05:25:14.095Z,2.88
2023-02-27T05:28:18.823Z,2.72
2023-02-27T05:30:59.250Z,2.70
2023-02-27T05:33:38.338Z,2.53
2023-02-27T05:36:20.763Z,2.85
2023-02-27T05:38:52.419Z,2.60
2023-02-27T05:41:28.942Z,2.95
2023-02-27T05:44:08.680Z,2.78
2023-02-27T05:46:38.942Z,2.80
2023-02-27T05:49:41.225Z,2.35
2023-02-27T05:52:12.241Z,2.55
2023-02-27T05:54:52.752Z,2.60
2023-02-27T05:57:53.675Z,2.80
2023-02-27T06:00:23.197Z,2.90
2023-02-27T06:02:50.353Z,2.65
2023-02-27T06:05:19.328Z,2.90
2023-02-27T06:07:46.811Z,2.63
2023-02-27T06:10:19.562Z,2.75
2023-02-27T06:12:46.808Z,3.00
2023-02-27T06:15:14.157Z,2.80
2023-02-27T06:17:41.221Z,2.85
2023-02-27T06:20:09.083Z,3.00
2023-02-27T06:22:36.028Z,3.13
2023-02-27T06:25:03.664Z,3.17
2023-02-27T06:27:30.572Z,2.78
2023-02-27T06:29:57.768Z,3.15
2023-02-27T06:32:25.886Z,3.05
2023-02-27T06:34:53.660Z,3.65
2023-02-27T06:37:22.696Z,3.28
2023-02-27T06:39:49.771Z,3.67
2023-02-27T06:42:16.948Z,3.40
2023-02-27T06:44:44.041Z,3.42
2023-02-27T06:47:11.162Z,3.10
2023-02-27T06:49:38.171Z,3.53
2023-02-27T06:52:05.225Z,3.17
2023-02-27T06:54:32.206Z,3.22
2023-02-27T06:56:59.297Z,3.35
2023-02-27T06:59:26.890Z,2.90
2023-02-27T07:01:53.920Z,3.28
2023-02-27T07:04:21.305Z,3.17
2023-02-27T07:07:36.367Z,3.53
2023-02-27T07:09:38.548Z,3.50
2023-02-27T07:12:05.962Z,3.67
2023-02-27T07:14:33.081Z,3.50
2023-02-27T07:17:04.433Z,3.30
2023-02-27T07:19:33.785Z,3.20
2023-02-27T07:22:01.782Z,4.35
2023-02-27T07:24:28.885Z,4.28
2023-02-27T07:26:56.789Z,3.67
2023-02-27T07:29:23.838Z,3.67
2023-02-27T07:31:51.816Z,3.90
2023-02-27T07:34:18.854Z,3.40
2023-02-27T07:36:45.851Z,3.72
2023-02-27T07:39:13.721Z,3.75
2023-02-27T07:41:41.057Z,3.53
2023-02-27T07:44:08.784Z,3.83
2023-02-27T07:46:38.900Z,3.88
2023-02-27T07:49:05.829Z,4.00
2023-02-27T07:51:33.122Z,3.92
2023-02-27T07:54:00.315Z,3.83
2023-02-27T07:56:27.913Z,3.95
2023-02-27T07:58:55.165Z,3.45
2023-02-27T08:01:22.522Z,3.72
2023-02-27T08:03:49.609Z,3.80
2023-02-27T08:06:16.631Z,3.75
2023-02-27T08:08:43.749Z,4.00
2023-02-27T08:11:11.040Z,3.95
2023-02-27T08:16:25.281Z,4.25
2023-02-27T08:18:52.306Z,4.70
2023-02-27T08:21:19.271Z,4.03
2023-02-27T08:23:46.144Z,3.65
2023-02-27T08:26:14.081Z,4.22
2023-02-27T08:28:41.705Z,4.40
2023-02-27T08:31:09.027Z,4.30
2023-02-27T08:33:36.192Z,4.43
2023-02-27T08:36:03.851Z,4.35
2023-02-27T08:38:30.895Z,4.47
2023-02-27T08:41:00.515Z,4.68
2023-02-27T08:43:27.459Z,4.60
2023-02-27T08:46:03.315Z,4.45
2023-02-27T08:48:30.405Z,4.15
2023-02-27T08:51:03.393Z,4.63
2023-02-27T08:53:30.490Z,4.38
2023-02-27T08:56:03.722Z,4.82
2023-02-27T08:58:31.201Z,4.22
2023-02-27T09:01:01.380Z,4.43
2023-02-27T09:03:32.097Z,4.10
2023-02-27T09:06:01.740Z,4.28
2023-02-27T09:08:28.783Z,4.40
2023-02-27T09:10:57.260Z,4.93
2023-02-27T09:13:24.416Z,4.72
2023-02-27T09:15:51.548Z,4.45
2023-02-27T09:18:18.737Z,4.97
2023-02-27T09:20:45.886Z,4.40
2023-02-27T09:23:12.808Z,4.45
2023-02-27T09:25:39.772Z,3.67
2023-02-27T09:28:06.720Z,4.50
2023-02-27T09:30:34.136Z,4.65
2023-02-27T09:33:01.377Z,4.18
2023-02-27T09:35:28.381Z,4.38
2023-02-27T09:37:58.358Z,4.20
2023-02-27T09:40:31.611Z,4.72
2023-02-27T09:43:03.012Z,4.20
2023-02-27T09:45:33.342Z,4.18
2023-02-27T09:48:11.973Z,4.30
2023-02-27T09:50:42.897Z,3.83
2023-02-27T09:53:15.348Z,4.00
2023-02-27T09:55:43.674Z,3.83
2023-02-27T09:58:29.932Z,3.25
2023-02-27T10:01:03.871Z,3.13
2023-02-27T10:04:03.287Z,3.10
2023-02-27T10:06:44.895Z,2.80
2023-02-27T10:09:36.776Z,3.13
2023-02-27T10:12:11.817Z,2.80
2023-02-27T10:14:44.854Z,2.72
2023-02-27T10:17:24.726Z,2.90
2023-02-27T10:19:54.308Z,2.70
2023-02-27T10:22:30.498Z,2.85
2023-02-27T10:25:12.675Z,2.90
2023-02-27T10:27:48.828Z,2.72
2023-02-27T10:30:29.803Z,3.42
2023-02-27T10:33:08.535Z,2.80
2023-02-27T10:35:38.746Z,2.92
2023-02-27T10:38:17.852Z,2.90
2023-02-27T10:40:46.382Z,2.65
2023-02-27T10:43:19.351Z,2.63
2023-02-27T10:45:46.682Z,3.15
2023-02-27T10:48:14.640Z,2.75
2023-02-27T10:50:50.593Z,2.83
2023-02-27T10:53:28.256Z,2.78
2023-02-27T10:56:04.167Z,3.33
2023-02-27T10:58:34.882Z,2.83
2023-02-27T11:01:07.609Z,2.85
2023-02-27T11:03:40.910Z,2.60
2023-02-27T11:06:26.852Z,2.60
2023-02-27T11:09:23.487Z,2.85
2023-02-27T11:11:51.679Z,2.65
2023-02-27T11:14:19.804Z,2.60
2023-02-27T11:16:52.119Z,2.70
2023-02-27T11:19:37.892Z,2.92
2023-02-27T11:22:20.097Z,2.53
2023-02-27T11:24:49.319Z,2.70
2023-02-27T11:27:29.254Z,2.90
2023-02-27T11:30:28.599Z,3.20
2023-02-27T11:32:59.301Z,3.08
2023-02-27T11:35:39.273Z,2.95
2023-02-27T11:38:17.121Z,3.17
2023-02-27T11:41:05.739Z,3.10
2023-02-27T11:43:34.727Z,3.10
2023-02-27T11:46:19.003Z,2.80
2023-02-27T11:48:58.486Z,3.00
2023-02-27T11:51:31.214Z,2.78
2023-02-27T11:54:26.156Z,3.00
2023-02-27T11:57:23.972Z,2.95
2023-02-27T12:00:14.638Z,3.08
2023-02-27T12:02:55.366Z,2.75
2023-02-27T12:05:28.012Z,2.83
2023-02-27T12:08:36.182Z,3.20
2023-02-27T12:11:28.457Z,2.80
2023-02-27T12:14:21.314Z,2.90
2023-02-27T12:16:52.487Z,3.55
2023-02-27T12:19:40.725Z,2.70
2023-02-27T12:22:25.329Z,2.60
2023-02-27T12:25:22.537Z,2.40
2023-02-27T12:27:54.019Z,2.22
2023-02-27T12:30:31.777Z,2.20
2023-02-27T12:33:13.354Z,2.47
2023-02-27T12:35:43.330Z,2.40
2023-02-27T12:38:15.380Z,2.63
2023-02-27T12:40:54.494Z,2.40
2023-02-27T12:43:58.147Z,2.30
2023-02-27T12:46:33.799Z,2.30
2023-02-27T12:49:27.128Z,2.97
2023-02-27T12:52:04.982Z,2.20
2023-02-27T12:55:01.632Z,2.20
2023-02-27T12:57:57.828Z,2.10
2023-02-27T13:00:35.340Z,2.20
2023-02-27T13:03:32.096Z,2.30
2023-02-27T13:06:05.358Z,2.45
2023-02-27T13:08:56.517Z,2.47
2023-02-27T13:11:43.944Z,2.10
2023-02-27T13:14:42.083Z,2.60
2023-02-27T13:17:38.050Z,2.72
2023-02-27T13:20:14.717Z,2.60
2023-02-27T13:23:44.108Z,2.13
2023-02-27T13:26:21.483Z,2.20
2023-02-27T13:28:49.555Z,2.45
2023-02-27T13:31:30.412Z,2.10
2023-02-27T13:34:11.788Z,2.28
2023-02-27T13:36:50.675Z,2.08
2023-02-27T13:39:39.967Z,2.22
2023-02-27T13:42:31.061Z,2.10
2023-02-27T13:45:06.474Z,2.10
2023-02-27T13:47:47.505Z,2.13
2023-02-27T13:50:33.175Z,2.42
2023-02-27T13:53:10.059Z,2.33
2023-02-27T13:55:37.859Z,2.00
2023-02-27T13:58:06.100Z,2.30
2023-02-27T14:00:58.483Z,2.13
2023-02-27T14:03:30.210Z,2.30
2023-02-27T14:06:15.489Z,2.15
2023-02-27T14:09:12.461Z,2.08
2023-02-27T14:11:50.175Z,1.80
2023-02-27T14:14:40.008Z,2.30
2023-02-27T14:17:38.132Z,2.22
2023-02-27T14:20:34.199Z,1.88
2023-02-27T14:23:26.221Z,1.90
2023-02-27T14:26:02.219Z,2.20
2023-02-27T14:29:04.523Z,1.85
2023-02-27T14:31:38.959Z,1.50
2023-02-27T14:34:06.735Z,1.98
2023-02-27T14:36:40.391Z,1.80
2023-02-27T14:39:07.451Z,2.00
2023-02-27T14:41:44.981Z,2.00
2023-02-27T14:44:21.528Z,2.05
2023-02-27T14:46:51.264Z,2.28
2023-02-27T14:49:35.624Z,1.58
2023-02-27T14:52:14.101Z,1.85
2023-02-27T14:55:30.465Z,1.83
2023-02-27T14:57:59.791Z,1.95
2023-02-27T15:01:06.313Z,1.88
2023-02-27T15:03:45.334Z,1.75
2023-02-27T15:06:38.698Z,2.03
2023-02-27T15:09:07.609Z,2.05
2023-02-27T15:11:35.147Z,2.17
2023-02-27T15:14:06.484Z,1.92
2023-02-27T15:16:41.641Z,1.90
2023-02-27T15:19:21.260Z,2.10
2023-02-27T15:21:52.492Z,2.22
2023-02-27T15:24:37.644Z,1.73
2023-02-27T15:27:16.301Z,2.88
2023-02-27T15:29:52.610Z,2.20
2023-02-27T15:32:38.226Z,1.88
2023-02-27T15:35:12.618Z,2.60
2023-02-27T15:37:57.447Z,1.90
2023-02-27T15:40:43.803Z,2.25
2023-02-27T15:43:11.681Z,2.03
2023-02-27T15:45:58.459Z,2.00
2023-02-27T15:48:26.165Z,2.20
2023-02-27T15:51:12.530Z,2.30
2023-02-27T15:53:48.872Z,2.03
2023-02-27T15:56:16.285Z,2.50
2023-02-27T15:58:53.969Z,2.40
2023-02-27T16:01:24.675Z,2.30
2023-02-27T16:03:55.048Z,2.60
2023-02-27T16:06:30.218Z,3.25
2023-02-27T16:09:25.588Z,2.55
2023-02-27T16:12:29.156Z,4.60
2023-02-27T16:15:32.086Z,5.45
2023-02-27T16:18:01.793Z,6.97
2023-02-27T16:20:43.547Z,4.32
2023-02-27T16:23:23.144Z,3.38
2023-02-27T16:26:09.179Z,2.60
2023-02-27T16:29:04.016Z,3.50
2023-02-27T16:31:34.945Z,2.75
2023-02-27T16:34:28.004Z,2.75
2023-02-27T16:37:05.508Z,2.88
2023-02-27T16:39:33.545Z,2.70
2023-02-27T16:42:01.907Z,2.33
2023-02-27T16:44:29.628Z,2.20
2023-02-27T16:46:58.950Z,2.90
2023-02-27T16:49:28.764Z,2.80
2023-02-27T16:51:56.228Z,2.58
2023-02-27T16:54:23.962Z,3.28
2023-02-27T16:56:51.677Z,3.28
2023-02-27T16:59:40.588Z,3.53
2023-02-27T17:02:13.330Z,3.05
2023-02-27T17:04:44.291Z,3.63
2023-02-27T17:07:18.612Z,3.40
2023-02-27T17:09:46.967Z,4.45
2023-02-27T17:12:14.861Z,4.78
2023-02-27T17:14:41.839Z,4.60
2023-02-27T17:17:11.099Z,3.67
2023-02-27T17:19:38.719Z,2.97
2023-02-27T17:22:05.757Z,3.20
2023-02-27T17:24:32.932Z,3.00
2023-02-27T17:27:01.618Z,3.20
2023-02-27T17:29:29.797Z,3.08
2023-02-27T17:31:59.584Z,3.75
2023-02-27T17:34:27.678Z,3.00
2023-02-27T17:36:54.804Z,2.97
2023-02-27T17:39:21.877Z,3.67
2023-02-27T17:41:49.135Z,3.50
2023-02-27T17:44:16.113Z,3.35
2023-02-27T17:46:43.131Z,3.53
2023-02-27T17:49:10.312Z,3.40
2023-02-27T17:51:37.769Z,3.63
2023-02-27T17:54:05.902Z,3.08
2023-02-27T17:56:35.008Z,3.10
2023-02-27T17:59:18.483Z,3.17
2023-02-27T18:01:46.425Z,3.70
2023-02-27T18:04:13.922Z,3.53
2023-02-27T18:06:59.654Z,5.10
2023-02-27T18:09:26.835Z,5.22
2023-02-27T18:11:53.973Z,6.38
2023-02-27T18:14:21.389Z,7.45
2023-02-27T18:16:48.611Z,6.80
2023-02-27T18:19:18.658Z,18.88
2023-02-27T18:22:03.841Z,12.45
2023-02-27T18:24:31.150Z,22.90
2023-02-27T18:26:58.177Z,8.32
2023-02-27T18:29:25.212Z,14.27
2023-02-27T18:31:55.086Z,7.18
2023-02-27T18:34:23.169Z,5.95
2023-02-27T18:36:52.030Z,7.22
2023-02-27T18:39:19.709Z,6.82
2023-02-27T18:41:47.635Z,7.68
2023-02-27T18:44:14.599Z,7.63
2023-02-27T18:46:41.646Z,6.97
2023-02-27T18:49:09.037Z,7.45
2023-02-27T18:51:36.600Z,10.77
2023-02-27T18:54:05.252Z,10.88
2023-02-27T18:56:33.005Z,10.25
2023-02-27T18:59:05.261Z,9.20
2023-02-27T19:01:36.258Z,9.65
2023-02-27T19:04:05.807Z,9.50
2023-02-27T19:06:35.571Z,9.07
2023-02-27T19:09:05.676Z,9.25
2023-02-27T19:11:33.560Z,8.13
2023-02-27T19:14:02.271Z,8.07
2023-02-27T19:16:33.013Z,6.65
2023-02-27T19:19:19.439Z,5.93
2023-02-27T19:21:49.818Z,5.18
2023-02-27T19:24:16.842Z,4.97
2023-02-27T19:26:43.801Z,4.90
2023-02-27T19:29:10.968Z,4.70
2023-02-27T19:31:38.120Z,5.30
2023-02-27T19:34:23.853Z,5.50
2023-02-27T19:36:50.865Z,5.03
2023-02-27T19:39:17.902Z,5.82
2023-02-27T19:42:03.475Z,6.75
2023-02-27T19:44:30.505Z,6.93
2023-02-27T19:46:57.518Z,6.95
2023-02-27T19:49:33.470Z,6.78
2023-02-27T19:52:00.526Z,6.30
2023-02-27T19:54:27.506Z,5.80
2023-02-27T19:57:14.227Z,5.43
2023-02-27T19:59:41.348Z,4.80
2023-02-27T20:02:10.126Z,5.30
2023-02-27T20:04:37.095Z,5.22
2023-02-27T20:07:04.200Z,5.18
2023-02-27T20:09:33.295Z,4.90
2023-02-27T20:12:01.594Z,4.50
2023-02-27T20:14:29.632Z,5.00
2023-02-27T20:16:56.735Z,4.85
2023-02-27T20:19:24.322Z,5.25
2023-02-27T20:21:52.245Z,5.55
2023-02-27T20:24:19.328Z,5.00
2023-02-27T20:26:48.665Z,5.95
2023-02-27T20:29:21.909Z,5.53
2023-02-27T20:31:53.961Z,5.88
2023-02-27T20:34:24.920Z,5.30
2023-02-27T20:36:53.124Z,5.80
2023-02-27T20:39:21.110Z,5.55
2023-02-27T20:41:48.789Z,5.93
2023-02-27T20:44:16.627Z,5.57
2023-02-27T20:46:49.303Z,6.10
2023-02-27T20:49:16.874Z,5.32
2023-02-27T20:51:44.948Z,5.82
2023-02-27T20:54:20.273Z,6.70
2023-02-27T20:57:06.282Z,6.45
2023-02-27T20:59:33.313Z,6.35
2023-02-27T21:02:00.176Z,6.95
2023-02-27T21:04:47.370Z,7.13
2023-02-27T21:07:33.127Z,6.88
2023-02-27T21:10:00.316Z,7.30
2023-02-27T21:12:27.270Z,7.78
2023-02-27T21:14:55.373Z,6.95
2023-02-27T21:17:31.680Z,6.90
2023-02-27T21:19:58.694Z,6.35
2023-02-27T21:22:25.604Z,6.10
2023-02-27T21:24:53.735Z,6.85
2023-02-27T21:27:21.455Z,6.25
2023-02-27T21:29:49.963Z,6.47
2023-02-27T21:32:18.572Z,6.50
2023-02-27T21:34:45.571Z,6.88
2023-02-27T21:37:12.688Z,6.30
2023-02-27T21:40:00.483Z,6.60
2023-02-27T21:42:27.791Z,7.15
2023-02-27T21:44:54.713Z,7.40
2023-02-27T21:47:29.335Z,7.15
2023-02-27T21:50:14.358Z,7.55
2023-02-27T21:52:42.717Z,6.93
2023-02-27T21:55:28.252Z,7.13
2023-02-27T21:57:55.365Z,7.07
2023-02-27T22:00:41.009Z,6.32
2023-02-27T22:03:08.072Z,7.00
2023-02-27T22:05:35.301Z,6.97
2023-02-27T22:08:02.757Z,6.43
2023-02-27T22:10:31.070Z,7.15
2023-02-27T22:12:57.978Z,6.60
2023-02-27T22:15:25.025Z,6.32
2023-02-27T22:17:54.755Z,6.68
2023-02-27T22:20:21.833Z,6.22
2023-02-27T22:22:48.788Z,6.32
2023-02-27T22:25:17.269Z,6.15
2023-02-27T22:27:44.244Z,6.50
2023-02-27T22:30:12.044Z,5.93
2023-02-27T22:32:40.216Z,6.43
2023-02-27T22:35:07.932Z,5.78
2023-02-27T22:37:53.676Z,6.70
2023-02-27T22:40:21.178Z,6.82
2023-02-27T22:42:48.198Z,6.88
2023-02-27T22:45:15.543Z,6.15
2023-02-27T22:47:42.593Z,6.55
2023-02-27T22:50:12.477Z,6.28
2023-02-27T22:52:58.273Z,6.22
2023-02-27T22:55:25.517Z,6.53
2023-02-27T22:57:52.641Z,6.47
2023-02-27T23:00:19.869Z,6.50
2023-02-27T23:02:46.915Z,6.82
2023-02-27T23:05:16.716Z,6.72
2023-02-27T23:07:43.904Z,6.45
2023-02-27T23:10:12.622Z,6.97
2023-02-27T23:12:42.612Z,6.40
2023-02-27T23:15:10.720Z,6.78
2023-02-27T23:17:46.355Z,6.45
2023-02-27T23:20:20.161Z,7.07
2023-02-27T23:22:47.443Z,6.60
2023-02-27T23:25:14.555Z,6.70
2023-02-27T23:27:41.783Z,7.32
2023-02-27T23:30:10.740Z,6.57
2023-02-27T23:32:44.040Z,6.50
2023-02-27T23:35:12.246Z,6.85
2023-02-27T23:37:42.130Z,6.60
2023-02-27T23:40:10.250Z,7.18
2023-02-27T23:42:58.226Z,7.55
2023-02-27T23:45:25.487Z,6.72
2023-02-27T23:48:10.872Z,6.45
2023-02-27T23:50:40.351Z,6.38
2023-02-27T23:53:21.809Z,6.90
2023-02-27T23:55:49.056Z,7.35
2023-02-27T23:58:16.048Z,6.80
